sensor_id;sensor_type;location;lat;lon;timestamp;P1;durP1;ratioP1;P2;durP2;ratioP2
72797;SDS011;61084;55.816;37.036;2024-03-23T00:52:25;34.30;;;13.77;;
72797;SDS011;61084;55.816;37.036;2024-03-23T00:54:51;32.97;;;13.05;;
72797;SDS011;61084;55.816;37.036;2024-03-23T00:57:17;34.72;;;14.02;;
72797;SDS011;61084;55.816;37.036;2024-03-23T00:59:43;30.75;;;13.30;;
72797;SDS011;61084;55.816;37.036;2024-03-23T01:02:09;34.05;;;13.50;;
72797;SDS011;61084;55.816;37.036;2024-03-23T01:04:34;32.88;;;13.10;;
72797;SDS011;61084;55.816;37.036;2024-03-23T01:07:01;34.10;;;13.23;;
72797;SDS011;61084;55.816;37.036;2024-03-23T01:09:26;34.50;;;14.32;;
72797;SDS011;61084;55.816;37.036;2024-03-23T01:11:52;30.45;;;13.90;;
72797;SDS011;61084;55.816;37.036;2024-03-23T01:14:18;31.75;;;13.10;;
72797;SDS011;61084;55.816;37.036;2024-03-23T01:16:44;32.00;;;13.88;;
72797;SDS011;61084;55.816;37.036;2024-03-23T01:19:10;28.98;;;13.30;;
72797;SDS011;61084;55.816;37.036;2024-03-23T01:21:35;31.23;;;13.73;;
72797;SDS011;61084;55.816;37.036;2024-03-23T01:24:01;39.15;;;15.65;;
72797;SDS011;61084;55.816;37.036;2024-03-23T01:26:27;34.83;;;14.95;;
72797;SDS011;61084;55.816;37.036;2024-03-23T01:28:53;33.70;;;14.48;;
72797;SDS011;61084;55.816;37.036;2024-03-23T01:31:19;34.95;;;14.38;;
72797;SDS011;61084;55.816;37.036;2024-03-23T01:33:45;32.60;;;14.02;;
72797;SDS011;61084;55.816;37.036;2024-03-23T01:36:11;32.47;;;13.88;;
72797;SDS011;61084;55.816;37.036;2024-03-23T01:38:36;36.70;;;14.40;;
72797;SDS011;61084;55.816;37.036;2024-03-23T01:41:02;33.08;;;14.73;;
72797;SDS011;61084;55.816;37.036;2024-03-23T01:43:28;34.10;;;14.07;;
72797;SDS011;61084;55.816;37.036;2024-03-23T01:45:54;34.40;;;14.63;;
72797;SDS011;61084;55.816;37.036;2024-03-23T01:48:21;33.22;;;14.38;;
72797;SDS011;61084;55.816;37.036;2024-03-23T01:50:47;33.13;;;15.10;;
72797;SDS011;61084;55.816;37.036;2024-03-23T01:53:14;33.80;;;14.70;;
72797;SDS011;61084;55.816;37.036;2024-03-23T01:55:43;41.03;;;14.15;;
72797;SDS011;61084;55.816;37.036;2024-03-23T01:58:09;33.42;;;14.05;;
72797;SDS011;61084;55.816;37.036;2024-03-23T02:00:35;34.08;;;14.00;;
72797;SDS011;61084;55.816;37.036;2024-03-23T02:03:02;32.17;;;13.98;;
72797;SDS011;61084;55.816;37.036;2024-03-23T02:05:28;30.52;;;13.18;;
72797;SDS011;61084;55.816;37.036;2024-03-23T02:07:54;33.33;;;14.13;;
72797;SDS011;61084;55.816;37.036;2024-03-23T02:10:19;35.05;;;14.75;;
72797;SDS011;61084;55.816;37.036;2024-03-23T02:12:45;31.60;;;13.30;;
72797;SDS011;61084;55.816;37.036;2024-03-23T02:15:12;31.35;;;13.05;;
72797;SDS011;61084;55.816;37.036;2024-03-23T02:17:57;32.03;;;14.18;;
72797;SDS011;61084;55.816;37.036;2024-03-23T02:20:23;31.13;;;13.73;;
72797;SDS011;61084;55.816;37.036;2024-03-23T02:22:55;30.77;;;13.98;;
72797;SDS011;61084;55.816;37.036;2024-03-23T02:25:21;30.92;;;13.85;;
72797;SDS011;61084;55.816;37.036;2024-03-23T02:27:47;33.63;;;12.98;;
72797;SDS011;61084;55.816;37.036;2024-03-23T02:30:13;30.73;;;13.52;;
72797;SDS011;61084;55.816;37.036;2024-03-23T02:32:39;32.03;;;13.30;;
72797;SDS011;61084;55.816;37.036;2024-03-23T02:35:05;29.60;;;13.02;;
72797;SDS011;61084;55.816;37.036;2024-03-23T02:37:31;31.58;;;13.02;;
72797;SDS011;61084;55.816;37.036;2024-03-23T02:39:58;31.42;;;14.02;;
72797;SDS011;61084;55.816;37.036;2024-03-23T02:42:24;34.33;;;13.88;;
72797;SDS011;61084;55.816;37.036;2024-03-23T02:44:49;34.35;;;14.07;;
72797;SDS011;61084;55.816;37.036;2024-03-23T02:47:15;34.45;;;14.40;;
72797;SDS011;61084;55.816;37.036;2024-03-23T02:49:41;35.08;;;14.68;;
72797;SDS011;61084;55.816;37.036;2024-03-23T02:52:07;32.72;;;13.57;;
72797;SDS011;61084;55.816;37.036;2024-03-23T02:54:33;32.60;;;13.85;;
72797;SDS011;61084;55.816;37.036;2024-03-23T02:56:59;30.25;;;13.70;;
72797;SDS011;61084;55.816;37.036;2024-03-23T02:59:24;33.20;;;13.90;;
72797;SDS011;61084;55.816;37.036;2024-03-23T03:01:50;32.85;;;14.15;;
72797;SDS011;61084;55.816;37.036;2024-03-23T03:04:16;34.22;;;13.82;;
72797;SDS011;61084;55.816;37.036;2024-03-23T03:06:43;35.70;;;14.13;;
72797;SDS011;61084;55.816;37.036;2024-03-23T03:09:12;34.78;;;14.23;;
72797;SDS011;61084;55.816;37.036;2024-03-23T03:11:38;30.27;;;14.13;;
72797;SDS011;61084;55.816;37.036;2024-03-23T03:14:04;33.78;;;13.70;;
72797;SDS011;61084;55.816;37.036;2024-03-23T03:16:32;34.78;;;13.23;;
72797;SDS011;61084;55.816;37.036;2024-03-23T03:18:58;35.90;;;14.32;;
72797;SDS011;61084;55.816;37.036;2024-03-23T03:21:24;34.63;;;13.88;;
72797;SDS011;61084;55.816;37.036;2024-03-23T03:23:50;35.10;;;13.48;;
72797;SDS011;61084;55.816;37.036;2024-03-23T03:26:16;33.00;;;13.50;;
72797;SDS011;61084;55.816;37.036;2024-03-23T03:28:42;27.45;;;12.73;;
72797;SDS011;61084;55.816;37.036;2024-03-23T03:31:17;33.40;;;14.40;;
72797;SDS011;61084;55.816;37.036;2024-03-23T03:33:44;34.83;;;14.40;;
72797;SDS011;61084;55.816;37.036;2024-03-23T03:36:10;32.08;;;13.30;;
72797;SDS011;61084;55.816;37.036;2024-03-23T03:38:36;35.50;;;14.18;;
72797;SDS011;61084;55.816;37.036;2024-03-23T03:41:02;38.75;;;14.32;;
72797;SDS011;61084;55.816;37.036;2024-03-23T03:43:28;31.60;;;14.20;;
72797;SDS011;61084;55.816;37.036;2024-03-23T03:45:54;31.83;;;14.10;;
72797;SDS011;61084;55.816;37.036;2024-03-23T03:48:21;31.60;;;13.65;;
72797;SDS011;61084;55.816;37.036;2024-03-23T03:50:47;32.92;;;13.90;;
72797;SDS011;61084;55.816;37.036;2024-03-23T03:53:13;29.38;;;14.10;;
72797;SDS011;61084;55.816;37.036;2024-03-23T03:55:39;34.55;;;14.63;;
72797;SDS011;61084;55.816;37.036;2024-03-23T03:58:05;32.65;;;14.10;;
72797;SDS011;61084;55.816;37.036;2024-03-23T04:00:31;34.33;;;13.40;;
72797;SDS011;61084;55.816;37.036;2024-03-23T04:02:57;33.70;;;13.20;;
72797;SDS011;61084;55.816;37.036;2024-03-23T04:05:23;33.03;;;14.13;;
72797;SDS011;61084;55.816;37.036;2024-03-23T04:07:49;34.20;;;13.73;;
72797;SDS011;61084;55.816;37.036;2024-03-23T04:10:15;32.63;;;13.00;;
72797;SDS011;61084;55.816;37.036;2024-03-23T04:12:43;40.00;;;15.23;;
72797;SDS011;61084;55.816;37.036;2024-03-23T04:15:10;39.70;;;15.35;;
72797;SDS011;61084;55.816;37.036;2024-03-23T04:17:36;34.25;;;14.43;;
72797;SDS011;61084;55.816;37.036;2024-03-23T04:20:02;29.33;;;13.27;;
72797;SDS011;61084;55.816;37.036;2024-03-23T04:22:34;33.05;;;14.05;;
72797;SDS011;61084;55.816;37.036;2024-03-23T04:25:00;35.63;;;14.20;;
72797;SDS011;61084;55.816;37.036;2024-03-23T04:27:32;28.08;;;13.40;;
72797;SDS011;61084;55.816;37.036;2024-03-23T04:32:53;29.35;;;12.13;;
72797;SDS011;61084;55.816;37.036;2024-03-23T04:35:19;30.17;;;14.15;;
72797;SDS011;61084;55.816;37.036;2024-03-23T04:37:47;29.40;;;13.13;;
72797;SDS011;61084;55.816;37.036;2024-03-23T04:40:13;33.22;;;14.02;;
72797;SDS011;61084;55.816;37.036;2024-03-23T04:42:39;31.52;;;14.70;;
72797;SDS011;61084;55.816;37.036;2024-03-23T04:45:05;34.00;;;14.95;;
72797;SDS011;61084;55.816;37.036;2024-03-23T04:47:32;31.25;;;13.82;;
72797;SDS011;61084;55.816;37.036;2024-03-23T04:49:58;32.05;;;14.10;;
72797;SDS011;61084;55.816;37.036;2024-03-23T04:52:24;26.70;;;12.05;;
72797;SDS011;61084;55.816;37.036;2024-03-23T04:54:50;27.55;;;13.48;;
72797;SDS011;61084;55.816;37.036;2024-03-23T04:57:15;32.55;;;12.68;;
72797;SDS011;61084;55.816;37.036;2024-03-23T04:59:47;28.73;;;12.00;;
72797;SDS011;61084;55.816;37.036;2024-03-23T05:02:13;26.38;;;12.07;;
72797;SDS011;61084;55.816;37.036;2024-03-23T05:04:41;29.55;;;12.57;;
72797;SDS011;61084;55.816;37.036;2024-03-23T05:07:08;27.05;;;12.15;;
72797;SDS011;61084;55.816;37.036;2024-03-23T05:09:34;24.95;;;12.43;;
72797;SDS011;61084;55.816;37.036;2024-03-23T05:12:00;26.98;;;11.52;;
72797;SDS011;61084;55.816;37.036;2024-03-23T05:14:26;27.58;;;12.40;;
72797;SDS011;61084;55.816;37.036;2024-03-23T05:16:52;31.17;;;12.20;;
72797;SDS011;61084;55.816;37.036;2024-03-23T05:19:19;25.63;;;12.23;;
72797;SDS011;61084;55.816;37.036;2024-03-23T05:21:44;26.08;;;11.63;;
72797;SDS011;61084;55.816;37.036;2024-03-23T05:24:11;28.02;;;11.18;;
72797;SDS011;61084;55.816;37.036;2024-03-23T05:26:38;25.85;;;11.70;;
72797;SDS011;61084;55.816;37.036;2024-03-23T05:29:04;23.77;;;10.57;;
72797;SDS011;61084;55.816;37.036;2024-03-23T05:31:30;26.10;;;11.52;;
72797;SDS011;61084;55.816;37.036;2024-03-23T05:33:57;26.20;;;11.77;;
72797;SDS011;61084;55.816;37.036;2024-03-23T05:36:23;23.67;;;11.77;;
72797;SDS011;61084;55.816;37.036;2024-03-23T05:38:51;30.42;;;12.27;;
72797;SDS011;61084;55.816;37.036;2024-03-23T05:41:18;22.80;;;11.23;;
72797;SDS011;61084;55.816;37.036;2024-03-23T05:43:43;21.25;;;10.30;;
72797;SDS011;61084;55.816;37.036;2024-03-23T05:46:09;23.23;;;11.02;;
72797;SDS011;61084;55.816;37.036;2024-03-23T05:48:35;26.92;;;10.90;;
72797;SDS011;61084;55.816;37.036;2024-03-23T05:51:02;25.20;;;11.50;;
72797;SDS011;61084;55.816;37.036;2024-03-23T05:53:28;22.60;;;10.15;;
72797;SDS011;61084;55.816;37.036;2024-03-23T05:56:02;20.67;;;10.65;;
72797;SDS011;61084;55.816;37.036;2024-03-23T05:58:33;21.33;;;11.10;;
72797;SDS011;61084;55.816;37.036;2024-03-23T06:00:59;24.33;;;10.07;;
72797;SDS011;61084;55.816;37.036;2024-03-23T06:03:27;23.23;;;9.70;;
72797;SDS011;61084;55.816;37.036;2024-03-23T06:05:55;21.40;;;11.00;;
72797;SDS011;61084;55.816;37.036;2024-03-23T06:08:22;19.23;;;9.27;;
72797;SDS011;61084;55.816;37.036;2024-03-23T06:10:50;22.65;;;10.45;;
72797;SDS011;61084;55.816;37.036;2024-03-23T06:13:17;20.45;;;10.05;;
72797;SDS011;61084;55.816;37.036;2024-03-23T06:15:44;18.73;;;9.30;;
72797;SDS011;61084;55.816;37.036;2024-03-23T06:18:12;15.70;;;8.38;;
72797;SDS011;61084;55.816;37.036;2024-03-23T06:20:38;19.95;;;9.60;;
72797;SDS011;61084;55.816;37.036;2024-03-23T06:23:04;18.55;;;9.30;;
72797;SDS011;61084;55.816;37.036;2024-03-23T06:25:30;17.90;;;8.35;;
72797;SDS011;61084;55.816;37.036;2024-03-23T06:27:56;16.50;;;7.72;;
72797;SDS011;61084;55.816;37.036;2024-03-23T06:30:24;17.10;;;8.38;;
72797;SDS011;61084;55.816;37.036;2024-03-23T06:32:50;18.17;;;7.88;;
72797;SDS011;61084;55.816;37.036;2024-03-23T06:35:15;16.23;;;8.07;;
72797;SDS011;61084;55.816;37.036;2024-03-23T06:37:41;16.30;;;7.78;;
72797;SDS011;61084;55.816;37.036;2024-03-23T06:40:08;14.57;;;7.32;;
72797;SDS011;61084;55.816;37.036;2024-03-23T06:42:38;14.88;;;7.57;;
72797;SDS011;61084;55.816;37.036;2024-03-23T06:45:04;14.27;;;8.10;;
72797;SDS011;61084;55.816;37.036;2024-03-23T06:47:31;13.77;;;6.82;;
72797;SDS011;61084;55.816;37.036;2024-03-23T06:49:58;12.65;;;6.55;;
72797;SDS011;61084;55.816;37.036;2024-03-23T06:52:31;15.48;;;7.15;;
72797;SDS011;61084;55.816;37.036;2024-03-23T06:54:57;16.17;;;7.72;;
72797;SDS011;61084;55.816;37.036;2024-03-23T06:57:24;12.48;;;6.57;;
72797;SDS011;61084;55.816;37.036;2024-03-23T06:59:50;12.55;;;6.93;;
72797;SDS011;61084;55.816;37.036;2024-03-23T07:02:16;13.38;;;7.75;;
72797;SDS011;61084;55.816;37.036;2024-03-23T07:04:42;11.88;;;6.55;;
72797;SDS011;61084;55.816;37.036;2024-03-23T07:07:08;12.23;;;6.13;;
72797;SDS011;61084;55.816;37.036;2024-03-23T07:09:34;11.90;;;6.40;;
72797;SDS011;61084;55.816;37.036;2024-03-23T07:12:00;10.85;;;6.00;;
72797;SDS011;61084;55.816;37.036;2024-03-23T07:14:26;12.27;;;6.45;;
72797;SDS011;61084;55.816;37.036;2024-03-23T07:16:52;11.30;;;5.93;;
72797;SDS011;61084;55.816;37.036;2024-03-23T07:19:17;14.55;;;6.82;;
72797;SDS011;61084;55.816;37.036;2024-03-23T07:21:44;14.30;;;7.20;;
72797;SDS011;61084;55.816;37.036;2024-03-23T07:24:10;13.00;;;6.90;;
72797;SDS011;61084;55.816;37.036;2024-03-23T07:26:37;12.23;;;6.75;;
72797;SDS011;61084;55.816;37.036;2024-03-23T07:29:03;13.45;;;7.05;;
72797;SDS011;61084;55.816;37.036;2024-03-23T07:31:30;15.60;;;8.32;;
72797;SDS011;61084;55.816;37.036;2024-03-23T07:33:55;14.82;;;6.70;;
72797;SDS011;61084;55.816;37.036;2024-03-23T07:36:21;13.43;;;7.05;;
72797;SDS011;61084;55.816;37.036;2024-03-23T07:38:47;12.32;;;7.00;;
72797;SDS011;61084;55.816;37.036;2024-03-23T07:41:17;12.55;;;6.80;;
72797;SDS011;61084;55.816;37.036;2024-03-23T07:43:45;13.60;;;7.13;;
72797;SDS011;61084;55.816;37.036;2024-03-23T07:46:11;11.65;;;5.80;;
72797;SDS011;61084;55.816;37.036;2024-03-23T07:48:38;13.38;;;6.70;;
72797;SDS011;61084;55.816;37.036;2024-03-23T07:51:06;13.27;;;6.35;;
72797;SDS011;61084;55.816;37.036;2024-03-23T07:53:34;12.15;;;6.47;;
72797;SDS011;61084;55.816;37.036;2024-03-23T07:56:03;11.90;;;6.40;;
72797;SDS011;61084;55.816;37.036;2024-03-23T07:58:33;10.80;;;6.40;;
72797;SDS011;61084;55.816;37.036;2024-03-23T08:01:03;12.88;;;6.88;;
72797;SDS011;61084;55.816;37.036;2024-03-23T08:03:37;10.93;;;5.80;;
72797;SDS011;61084;55.816;37.036;2024-03-23T08:06:08;11.27;;;6.60;;
72797;SDS011;61084;55.816;37.036;2024-03-23T08:08:39;11.40;;;5.80;;
72797;SDS011;61084;55.816;37.036;2024-03-23T08:11:06;11.82;;;6.07;;
72797;SDS011;61084;55.816;37.036;2024-03-23T08:13:32;11.20;;;6.20;;
72797;SDS011;61084;55.816;37.036;2024-03-23T08:15:59;10.35;;;6.30;;
72797;SDS011;61084;55.816;37.036;2024-03-23T08:18:27;11.90;;;6.32;;
72797;SDS011;61084;55.816;37.036;2024-03-23T08:20:59;14.73;;;6.13;;
72797;SDS011;61084;55.816;37.036;2024-03-23T08:23:30;11.80;;;6.00;;
72797;SDS011;61084;55.816;37.036;2024-03-23T08:25:59;10.90;;;5.70;;
72797;SDS011;61084;55.816;37.036;2024-03-23T08:28:27;10.07;;;5.32;;
72797;SDS011;61084;55.816;37.036;2024-03-23T08:30:53;10.80;;;5.22;;
72797;SDS011;61084;55.816;37.036;2024-03-23T08:33:20;8.65;;;5.07;;
72797;SDS011;61084;55.816;37.036;2024-03-23T08:35:53;11.30;;;6.13;;
72797;SDS011;61084;55.816;37.036;2024-03-23T08:38:29;10.88;;;5.47;;
72797;SDS011;61084;55.816;37.036;2024-03-23T08:40:58;11.70;;;6.47;;
72797;SDS011;61084;55.816;37.036;2024-03-23T08:43:28;15.10;;;7.03;;
72797;SDS011;61084;55.816;37.036;2024-03-23T08:48:31;11.93;;;6.50;;
72797;SDS011;61084;55.816;37.036;2024-03-23T08:51:04;11.73;;;5.93;;
72797;SDS011;61084;55.816;37.036;2024-03-23T08:53:30;10.07;;;6.40;;
72797;SDS011;61084;55.816;37.036;2024-03-23T08:55:57;13.07;;;6.20;;
72797;SDS011;61084;55.816;37.036;2024-03-23T08:58:24;11.00;;;5.68;;
72797;SDS011;61084;55.816;37.036;2024-03-23T09:00:51;13.52;;;6.80;;
72797;SDS011;61084;55.816;37.036;2024-03-23T09:03:18;13.88;;;6.85;;
72797;SDS011;61084;55.816;37.036;2024-03-23T09:05:44;10.30;;;6.43;;
72797;SDS011;61084;55.816;37.036;2024-03-23T09:08:10;10.68;;;6.18;;
72797;SDS011;61084;55.816;37.036;2024-03-23T09:10:39;10.98;;;6.05;;
72797;SDS011;61084;55.816;37.036;2024-03-23T09:13:06;12.43;;;6.72;;
72797;SDS011;61084;55.816;37.036;2024-03-23T09:15:34;11.45;;;5.97;;
72797;SDS011;61084;55.816;37.036;2024-03-23T09:18:01;11.52;;;6.28;;
72797;SDS011;61084;55.816;37.036;2024-03-23T09:20:28;10.35;;;5.80;;
72797;SDS011;61084;55.816;37.036;2024-03-23T09:22:53;13.23;;;6.38;;
72797;SDS011;61084;55.816;37.036;2024-03-23T09:25:19;11.15;;;5.63;;
72797;SDS011;61084;55.816;37.036;2024-03-23T09:27:46;10.30;;;5.63;;
72797;SDS011;61084;55.816;37.036;2024-03-23T09:30:12;11.32;;;5.70;;
72797;SDS011;61084;55.816;37.036;2024-03-23T09:32:39;9.20;;;5.45;;
72797;SDS011;61084;55.816;37.036;2024-03-23T09:35:07;11.18;;;5.70;;
72797;SDS011;61084;55.816;37.036;2024-03-23T09:37:33;10.80;;;5.95;;
72797;SDS011;61084;55.816;37.036;2024-03-23T09:39:59;11.32;;;5.75;;
72797;SDS011;61084;55.816;37.036;2024-03-23T09:42:25;9.88;;;5.82;;
72797;SDS011;61084;55.816;37.036;2024-03-23T09:44:51;11.95;;;6.13;;
72797;SDS011;61084;55.816;37.036;2024-03-23T09:47:17;8.50;;;5.55;;
72797;SDS011;61084;55.816;37.036;2024-03-23T09:49:43;9.88;;;5.43;;
72797;SDS011;61084;55.816;37.036;2024-03-23T09:52:10;10.70;;;6.15;;
72797;SDS011;61084;55.816;37.036;2024-03-23T09:54:36;10.95;;;5.75;;
72797;SDS011;61084;55.816;37.036;2024-03-23T09:57:02;11.23;;;6.15;;
72797;SDS011;61084;55.816;37.036;2024-03-23T09:59:29;12.00;;;6.20;;
72797;SDS011;61084;55.816;37.036;2024-03-23T10:01:55;10.23;;;5.88;;
72797;SDS011;61084;55.816;37.036;2024-03-23T10:04:36;10.38;;;5.97;;
72797;SDS011;61084;55.816;37.036;2024-03-23T10:07:12;11.07;;;5.82;;
72797;SDS011;61084;55.816;37.036;2024-03-23T10:09:43;8.60;;;5.35;;
72797;SDS011;61084;55.816;37.036;2024-03-23T10:12:10;9.95;;;6.03;;
72797;SDS011;61084;55.816;37.036;2024-03-23T10:14:42;9.23;;;5.85;;
72797;SDS011;61084;55.816;37.036;2024-03-23T10:17:12;11.80;;;5.70;;
72797;SDS011;61084;55.816;37.036;2024-03-23T10:19:51;10.27;;;5.28;;
72797;SDS011;61084;55.816;37.036;2024-03-23T10:22:19;9.18;;;5.43;;
72797;SDS011;61084;55.816;37.036;2024-03-23T10:24:46;10.15;;;5.57;;
72797;SDS011;61084;55.816;37.036;2024-03-23T10:27:15;11.48;;;5.95;;
72797;SDS011;61084;55.816;37.036;2024-03-23T10:29:43;9.13;;;5.43;;
72797;SDS011;61084;55.816;37.036;2024-03-23T10:32:18;10.07;;;4.90;;
72797;SDS011;61084;55.816;37.036;2024-03-23T10:34:44;9.65;;;6.15;;
72797;SDS011;61084;55.816;37.036;2024-03-23T10:37:11;9.20;;;5.57;;
72797;SDS011;61084;55.816;37.036;2024-03-23T10:39:39;10.73;;;5.85;;
72797;SDS011;61084;55.816;37.036;2024-03-23T10:42:06;9.77;;;5.55;;
72797;SDS011;61084;55.816;37.036;2024-03-23T10:44:36;9.73;;;5.65;;
72797;SDS011;61084;55.816;37.036;2024-03-23T10:47:03;8.85;;;5.63;;
72797;SDS011;61084;55.816;37.036;2024-03-23T10:49:31;9.13;;;5.10;;
72797;SDS011;61084;55.816;37.036;2024-03-23T10:52:01;10.55;;;5.63;;
72797;SDS011;61084;55.816;37.036;2024-03-23T10:54:31;10.93;;;5.50;;
72797;SDS011;61084;55.816;37.036;2024-03-23T10:57:03;6.95;;;5.03;;
72797;SDS011;61084;55.816;37.036;2024-03-23T10:59:42;11.02;;;5.50;;
72797;SDS011;61084;55.816;37.036;2024-03-23T11:02:20;10.50;;;5.60;;
72797;SDS011;61084;55.816;37.036;2024-03-23T11:04:46;11.48;;;5.63;;
72797;SDS011;61084;55.816;37.036;2024-03-23T11:09:57;9.38;;;4.75;;
72797;SDS011;61084;55.816;37.036;2024-03-23T11:15:06;9.38;;;5.15;;
72797;SDS011;61084;55.816;37.036;2024-03-23T11:17:37;9.15;;;5.20;;
72797;SDS011;61084;55.816;37.036;2024-03-23T11:20:04;8.27;;;5.03;;
72797;SDS011;61084;55.816;37.036;2024-03-23T11:25:14;7.88;;;4.90;;
72797;SDS011;61084;55.816;37.036;2024-03-23T11:27:44;8.82;;;4.65;;
72797;SDS011;61084;55.816;37.036;2024-03-23T11:32:44;8.60;;;5.57;;
72797;SDS011;61084;55.816;37.036;2024-03-23T11:35:27;9.13;;;4.80;;
72797;SDS011;61084;55.816;37.036;2024-03-23T11:40:36;9.25;;;4.88;;
72797;SDS011;61084;55.816;37.036;2024-03-23T11:43:10;7.97;;;5.45;;
72797;SDS011;61084;55.816;37.036;2024-03-23T11:45:40;8.85;;;5.55;;
72797;SDS011;61084;55.816;37.036;2024-03-23T11:48:18;8.77;;;5.22;;
72797;SDS011;61084;55.816;37.036;2024-03-23T11:50:47;9.88;;;5.45;;
72797;SDS011;61084;55.816;37.036;2024-03-23T11:53:20;10.45;;;5.45;;
72797;SDS011;61084;55.816;37.036;2024-03-23T11:55:51;9.88;;;5.70;;
72797;SDS011;61084;55.816;37.036;2024-03-23T11:58:22;10.93;;;5.32;;
72797;SDS011;61084;55.816;37.036;2024-03-23T12:03:17;8.13;;;5.20;;
72797;SDS011;61084;55.816;37.036;2024-03-23T12:05:50;9.85;;;5.30;;
72797;SDS011;61084;55.816;37.036;2024-03-23T12:08:39;12.10;;;6.00;;
72797;SDS011;61084;55.816;37.036;2024-03-23T12:11:06;9.20;;;5.32;;
72797;SDS011;61084;55.816;37.036;2024-03-23T12:13:40;8.65;;;5.18;;
72797;SDS011;61084;55.816;37.036;2024-03-23T12:16:12;9.13;;;4.90;;
72797;SDS011;61084;55.816;37.036;2024-03-23T12:18:41;10.02;;;5.65;;
72797;SDS011;61084;55.816;37.036;2024-03-23T12:21:09;13.43;;;6.50;;
72797;SDS011;61084;55.816;37.036;2024-03-23T12:23:35;10.18;;;5.93;;
72797;SDS011;61084;55.816;37.036;2024-03-23T12:26:04;10.43;;;5.95;;
72797;SDS011;61084;55.816;37.036;2024-03-23T12:28:30;11.35;;;5.80;;
72797;SDS011;61084;55.816;37.036;2024-03-23T12:30:56;13.38;;;5.95;;
72797;SDS011;61084;55.816;37.036;2024-03-23T12:33:22;9.93;;;5.63;;
72797;SDS011;61084;55.816;37.036;2024-03-23T12:35:48;10.80;;;5.90;;
72797;SDS011;61084;55.816;37.036;2024-03-23T12:38:15;14.00;;;6.53;;
72797;SDS011;61084;55.816;37.036;2024-03-23T12:40:41;10.55;;;6.50;;
72797;SDS011;61084;55.816;37.036;2024-03-23T12:43:07;11.02;;;6.00;;
72797;SDS011;61084;55.816;37.036;2024-03-23T12:45:33;9.90;;;5.60;;
72797;SDS011;61084;55.816;37.036;2024-03-23T12:47:59;10.93;;;5.72;;
72797;SDS011;61084;55.816;37.036;2024-03-23T12:50:25;9.68;;;5.60;;
72797;SDS011;61084;55.816;37.036;2024-03-23T12:52:51;9.38;;;5.53;;
72797;SDS011;61084;55.816;37.036;2024-03-23T12:55:17;9.77;;;5.47;;
72797;SDS011;61084;55.816;37.036;2024-03-23T12:57:43;11.95;;;5.72;;
72797;SDS011;61084;55.816;37.036;2024-03-23T13:00:10;10.10;;;5.70;;
72797;SDS011;61084;55.816;37.036;2024-03-23T13:02:37;10.55;;;5.97;;
72797;SDS011;61084;55.816;37.036;2024-03-23T13:05:04;10.07;;;5.85;;
72797;SDS011;61084;55.816;37.036;2024-03-23T13:07:30;10.85;;;5.65;;
72797;SDS011;61084;55.816;37.036;2024-03-23T13:09:56;15.05;;;7.70;;
72797;SDS011;61084;55.816;37.036;2024-03-23T13:12:23;17.10;;;8.45;;
72797;SDS011;61084;55.816;37.036;2024-03-23T13:14:49;10.85;;;6.18;;
72797;SDS011;61084;55.816;37.036;2024-03-23T13:17:15;10.45;;;5.88;;
72797;SDS011;61084;55.816;37.036;2024-03-23T13:19:40;13.07;;;7.13;;
72797;SDS011;61084;55.816;37.036;2024-03-23T13:22:07;11.77;;;7.30;;
72797;SDS011;61084;55.816;37.036;2024-03-23T13:24:33;26.23;;;18.65;;
72797;SDS011;61084;55.816;37.036;2024-03-23T13:26:59;15.60;;;11.18;;
72797;SDS011;61084;55.816;37.036;2024-03-23T13:29:25;17.88;;;11.63;;
72797;SDS011;61084;55.816;37.036;2024-03-23T13:31:51;21.48;;;12.73;;
72797;SDS011;61084;55.816;37.036;2024-03-23T13:34:18;36.20;;;19.23;;
72797;SDS011;61084;55.816;37.036;2024-03-23T13:36:44;44.38;;;28.67;;
72797;SDS011;61084;55.816;37.036;2024-03-23T13:39:12;24.85;;;15.00;;
72797;SDS011;61084;55.816;37.036;2024-03-23T13:41:39;12.90;;;8.38;;
72797;SDS011;61084;55.816;37.036;2024-03-23T13:44:09;18.60;;;13.02;;
72797;SDS011;61084;55.816;37.036;2024-03-23T13:46:36;12.00;;;6.57;;
72797;SDS011;61084;55.816;37.036;2024-03-23T13:49:03;12.85;;;8.75;;
72797;SDS011;61084;55.816;37.036;2024-03-23T13:51:30;15.75;;;7.75;;
72797;SDS011;61084;55.816;37.036;2024-03-23T13:53:56;9.77;;;6.25;;
72797;SDS011;61084;55.816;37.036;2024-03-23T13:56:22;9.02;;;4.95;;
72797;SDS011;61084;55.816;37.036;2024-03-23T13:58:49;11.23;;;7.45;;
72797;SDS011;61084;55.816;37.036;2024-03-23T14:01:15;11.10;;;6.40;;
72797;SDS011;61084;55.816;37.036;2024-03-23T14:03:44;11.63;;;6.63;;
72797;SDS011;61084;55.816;37.036;2024-03-23T14:06:10;10.15;;;5.85;;
72797;SDS011;61084;55.816;37.036;2024-03-23T14:08:37;19.88;;;10.00;;
72797;SDS011;61084;55.816;37.036;2024-03-23T14:11:07;10.35;;;5.55;;
72797;SDS011;61084;55.816;37.036;2024-03-23T14:13:37;8.90;;;5.20;;
72797;SDS011;61084;55.816;37.036;2024-03-23T14:16:03;14.02;;;6.57;;
72797;SDS011;61084;55.816;37.036;2024-03-23T14:18:29;9.38;;;5.75;;
72797;SDS011;61084;55.816;37.036;2024-03-23T14:20:59;9.57;;;5.15;;
72797;SDS011;61084;55.816;37.036;2024-03-23T14:23:30;124.13;;;74.90;;
72797;SDS011;61084;55.816;37.036;2024-03-23T14:25:59;17.50;;;11.13;;
72797;SDS011;61084;55.816;37.036;2024-03-23T14:28:26;8.52;;;5.03;;
72797;SDS011;61084;55.816;37.036;2024-03-23T14:30:54;10.25;;;5.45;;
72797;SDS011;61084;55.816;37.036;2024-03-23T14:33:21;14.45;;;6.78;;
72797;SDS011;61084;55.816;37.036;2024-03-23T14:35:51;8.52;;;5.03;;
72797;SDS011;61084;55.816;37.036;2024-03-23T14:38:23;10.77;;;6.20;;
72797;SDS011;61084;55.816;37.036;2024-03-23T14:40:49;8.20;;;5.05;;
72797;SDS011;61084;55.816;37.036;2024-03-23T14:43:16;13.95;;;6.93;;
72797;SDS011;61084;55.816;37.036;2024-03-23T14:48:42;7.43;;;4.47;;
72797;SDS011;61084;55.816;37.036;2024-03-23T14:51:10;8.60;;;4.75;;
72797;SDS011;61084;55.816;37.036;2024-03-23T14:53:37;13.30;;;6.85;;
72797;SDS011;61084;55.816;37.036;2024-03-23T14:56:08;12.23;;;5.82;;
72797;SDS011;61084;55.816;37.036;2024-03-23T14:58:37;8.75;;;5.18;;
72797;SDS011;61084;55.816;37.036;2024-03-23T15:01:03;10.05;;;5.05;;
72797;SDS011;61084;55.816;37.036;2024-03-23T15:03:32;13.55;;;6.93;;
72797;SDS011;61084;55.816;37.036;2024-03-23T15:06:17;36.60;;;13.95;;
72797;SDS011;61084;55.816;37.036;2024-03-23T15:08:43;40.35;;;13.82;;
72797;SDS011;61084;55.816;37.036;2024-03-23T15:11:09;17.85;;;8.73;;
72797;SDS011;61084;55.816;37.036;2024-03-23T15:13:35;8.70;;;4.72;;
72797;SDS011;61084;55.816;37.036;2024-03-23T15:16:02;11.48;;;5.80;;
72797;SDS011;61084;55.816;37.036;2024-03-23T15:18:32;8.88;;;4.97;;
72797;SDS011;61084;55.816;37.036;2024-03-23T15:20:59;10.10;;;5.10;;
72797;SDS011;61084;55.816;37.036;2024-03-23T15:23:33;16.70;;;7.03;;
72797;SDS011;61084;55.816;37.036;2024-03-23T15:26:00;15.95;;;6.70;;
72797;SDS011;61084;55.816;37.036;2024-03-23T15:28:28;16.92;;;9.45;;
72797;SDS011;61084;55.816;37.036;2024-03-23T15:31:04;12.48;;;7.72;;
72797;SDS011;61084;55.816;37.036;2024-03-23T15:33:30;9.45;;;5.35;;
72797;SDS011;61084;55.816;37.036;2024-03-23T15:35:59;9.50;;;4.70;;